sensor_id;sensor_type;location;lat;lon;timestamp;temperature;humidity
6810;DHT22;3443;48.812;9.112;2023-03-23T00:01:24;13.70;99.90
6810;DHT22;3443;48.812;9.112;2023-03-23T00:03:52;13.80;99.90
6810;DHT22;3443;48.812;9.112;2023-03-23T00:06:19;13.80;99.90
6810;DHT22;3443;48.812;9.112;2023-03-23T00:08:47;13.80;99.90
6810;DHT22;3443;48.812;9.112;2023-03-23T00:11:15;13.80;99.90
6810;DHT22;3443;48.812;9.112;2023-03-23T00:13:42;13.80;99.90
6810;DHT22;3443;48.812;9.112;2023-03-23T00:16:08;13.70;99.90
6810;DHT22;3443;48.812;9.112;2023-03-23T00:18:47;13.70;99.90
6810;DHT22;3443;48.812;9.112;2023-03-23T00:21:13;13.80;99.90
6810;DHT22;3443;48.812;9.112;2023-03-23T00:23:40;13.70;99.90
6810;DHT22;3443;48.812;9.112;2023-03-23T00:26:06;13.80;99.90
6810;DHT22;3443;48.812;9.112;2023-03-23T00:28:32;13.70;99.90
6810;DHT22;3443;48.812;9.112;2023-03-23T00:31:00;13.80;99.90
6810;DHT22;3443;48.812;9.112;2023-03-23T00:33:34;13.80;99.90
6810;DHT22;3443;48.812;9.112;2023-03-23T00:36:04;13.80;99.90
6810;DHT22;3443;48.812;9.112;2023-03-23T00:38:30;13.80;99.90
6810;DHT22;3443;48.812;9.112;2023-03-23T00:40:56;13.80;99.90
6810;DHT22;3443;48.812;9.112;2023-03-23T00:43:23;13.90;99.90
6810;DHT22;3443;48.812;9.112;2023-03-23T00:45:50;13.80;99.90
6810;DHT22;3443;48.812;9.112;2023-03-23T00:48:20;13.90;99.90
6810;DHT22;3443;48.812;9.112;2023-03-23T00:50:46;13.90;99.90
6810;DHT22;3443;48.812;9.112;2023-03-23T00:53:12;13.90;99.90
6810;DHT22;3443;48.812;9.112;2023-03-23T00:55:43;13.90;99.90
6810;DHT22;3443;48.812;9.112;2023-03-23T00:58:10;13.90;99.90
6810;DHT22;3443;48.812;9.112;2023-03-23T01:00:37;13.90;99.90
6810;DHT22;3443;48.812;9.112;2023-03-23T01:03:03;13.90;99.90
6810;DHT22;3443;48.812;9.112;2023-03-23T01:05:29;13.90;99.90
6810;DHT22;3443;48.812;9.112;2023-03-23T01:07:59;13.90;99.90
6810;DHT22;3443;48.812;9.112;2023-03-23T01:10:24;14.00;99.90
6810;DHT22;3443;48.812;9.112;2023-03-23T01:12:52;13.90;99.90
6810;DHT22;3443;48.812;9.112;2023-03-23T01:15:18;13.90;99.90
6810;DHT22;3443;48.812;9.112;2023-03-23T01:17:44;13.80;99.90
6810;DHT22;3443;48.812;9.112;2023-03-23T01:20:13;13.80;99.90
6810;DHT22;3443;48.812;9.112;2023-03-23T01:22:40;13.90;99.90
6810;DHT22;3443;48.812;9.112;2023-03-23T01:25:06;13.90;99.90
6810;DHT22;3443;48.812;9.112;2023-03-23T01:27:32;13.90;99.90
6810;DHT22;3443;48.812;9.112;2023-03-23T01:29:58;13.90;99.90
6810;DHT22;3443;48.812;9.112;2023-03-23T01:32:23;13.90;99.90
6810;DHT22;3443;48.812;9.112;2023-03-23T01:34:49;13.90;99.90
6810;DHT22;3443;48.812;9.112;2023-03-23T01:37:15;13.70;99.90
6810;DHT22;3443;48.812;9.112;2023-03-23T01:39:41;13.90;99.90
6810;DHT22;3443;48.812;9.112;2023-03-23T01:42:08;13.90;99.90
6810;DHT22;3443;48.812;9.112;2023-03-23T01:46:59;13.90;99.90
6810;DHT22;3443;48.812;9.112;2023-03-23T01:49:38;14.00;99.90
6810;DHT22;3443;48.812;9.112;2023-03-23T01:52:09;13.90;99.90
6810;DHT22;3443;48.812;9.112;2023-03-23T01:54:37;13.80;99.90
6810;DHT22;3443;48.812;9.112;2023-03-23T01:57:15;13.80;99.90
6810;DHT22;3443;48.812;9.112;2023-03-23T01:59:43;13.80;99.90
6810;DHT22;3443;48.812;9.112;2023-03-23T02:02:11;13.80;99.90
6810;DHT22;3443;48.812;9.112;2023-03-23T02:04:38;13.80;99.90
6810;DHT22;3443;48.812;9.112;2023-03-23T02:07:06;13.70;99.90
6810;DHT22;3443;48.812;9.112;2023-03-23T02:09:31;13.70;99.90
6810;DHT22;3443;48.812;9.112;2023-03-23T02:11:57;13.60;99.90
6810;DHT22;3443;48.812;9.112;2023-03-23T02:14:24;13.70;99.90
6810;DHT22;3443;48.812;9.112;2023-03-23T02:17:04;13.60;99.90
6810;DHT22;3443;48.812;9.112;2023-03-23T02:24:57;13.60;99.90
6810;DHT22;3443;48.812;9.112;2023-03-23T02:27:31;13.60;99.90
6810;DHT22;3443;48.812;9.112;2023-03-23T02:36:02;13.60;99.90
6810;DHT22;3443;48.812;9.112;2023-03-23T02:38:38;13.60;99.90
6810;DHT22;3443;48.812;9.112;2023-03-23T02:41:06;13.60;99.90
6810;DHT22;3443;48.812;9.112;2023-03-23T02:43:40;13.60;99.90
6810;DHT22;3443;48.812;9.112;2023-03-23T02:46:08;13.60;99.90
6810;DHT22;3443;48.812;9.112;2023-03-23T02:48:35;13.50;99.90
6810;DHT22;3443;48.812;9.112;2023-03-23T02:51:03;13.50;99.90
6810;DHT22;3443;48.812;9.112;2023-03-23T02:53:30;13.50;99.90
6810;DHT22;3443;48.812;9.112;2023-03-23T02:55:59;13.40;99.90
6810;DHT22;3443;48.812;9.112;2023-03-23T02:58:28;13.20;99.90
6810;DHT22;3443;48.812;9.112;2023-03-23T03:00:54;13.40;99.90
6810;DHT22;3443;48.812;9.112;2023-03-23T03:03:24;13.40;99.90
6810;DHT22;3443;48.812;9.112;2023-03-23T03:06:17;13.40;99.90
6810;DHT22;3443;48.812;9.112;2023-03-23T03:11:23;13.40;99.90
6810;DHT22;3443;48.812;9.112;2023-03-23T03:14:10;13.50;99.90
6810;DHT22;3443;48.812;9.112;2023-03-23T03:16:48;13.50;99.90
6810;DHT22;3443;48.812;9.112;2023-03-23T03:19:38;13.50;99.90
6810;DHT22;3443;48.812;9.112;2023-03-23T03:22:06;13.50;99.90
6810;DHT22;3443;48.812;9.112;2023-03-23T03:24:33;13.50;99.90
6810;DHT22;3443;48.812;9.112;2023-03-23T03:27:03;13.50;99.90
6810;DHT22;3443;48.812;9.112;2023-03-23T03:29:37;13.60;99.90
6810;DHT22;3443;48.812;9.112;2023-03-23T03:32:06;13.60;99.90
6810;DHT22;3443;48.812;9.112;2023-03-23T03:34:33;13.60;99.90
6810;DHT22;3443;48.812;9.112;2023-03-23T03:37:00;13.60;99.90
6810;DHT22;3443;48.812;9.112;2023-03-23T03:39:26;13.60;99.90
6810;DHT22;3443;48.812;9.112;2023-03-23T03:41:53;13.70;99.90
6810;DHT22;3443;48.812;9.112;2023-03-23T03:44:19;13.70;99.90
6810;DHT22;3443;48.812;9.112;2023-03-23T03:46:45;13.80;99.90
6810;DHT22;3443;48.812;9.112;2023-03-23T03:49:11;13.80;99.90
6810;DHT22;3443;48.812;9.112;2023-03-23T03:51:38;13.70;99.90
6810;DHT22;3443;48.812;9.112;2023-03-23T03:54:04;13.70;99.90
6810;DHT22;3443;48.812;9.112;2023-03-23T03:56:30;13.70;99.90
6810;DHT22;3443;48.812;9.112;2023-03-23T03:58:58;13.70;99.90
6810;DHT22;3443;48.812;9.112;2023-03-23T04:01:24;13.70;99.90
6810;DHT22;3443;48.812;9.112;2023-03-23T04:03:51;13.70;99.90
6810;DHT22;3443;48.812;9.112;2023-03-23T04:06:17;13.70;99.90
6810;DHT22;3443;48.812;9.112;2023-03-23T04:08:43;13.70;99.90
6810;DHT22;3443;48.812;9.112;2023-03-23T04:11:10;13.70;99.90
6810;DHT22;3443;48.812;9.112;2023-03-23T04:13:37;13.60;99.90
6810;DHT22;3443;48.812;9.112;2023-03-23T04:16:04;13.70;99.90
6810;DHT22;3443;48.812;9.112;2023-03-23T04:18:29;13.70;99.90
6810;DHT22;3443;48.812;9.112;2023-03-23T04:20:58;13.80;99.90
6810;DHT22;3443;48.812;9.112;2023-03-23T04:23:25;13.70;99.90
6810;DHT22;3443;48.812;9.112;2023-03-23T04:25:52;13.70;99.90
6810;DHT22;3443;48.812;9.112;2023-03-23T04:28:22;13.70;99.90
6810;DHT22;3443;48.812;9.112;2023-03-23T04:30:50;13.60;99.90
6810;DHT22;3443;48.812;9.112;2023-03-23T04:33:19;13.60;99.90
6810;DHT22;3443;48.812;9.112;2023-03-23T04:35:46;13.60;99.90
6810;DHT22;3443;48.812;9.112;2023-03-23T04:38:14;13.60;99.90
6810;DHT22;3443;48.812;9.112;2023-03-23T04:40:41;13.70;99.90
6810;DHT22;3443;48.812;9.112;2023-03-23T04:43:07;13.70;99.90
6810;DHT22;3443;48.812;9.112;2023-03-23T04:45:35;13.70;99.90
6810;DHT22;3443;48.812;9.112;2023-03-23T04:48:03;13.70;99.90
6810;DHT22;3443;48.812;9.112;2023-03-23T04:50:32;13.70;99.90
6810;DHT22;3443;48.812;9.112;2023-03-23T04:52:59;13.70;99.90
6810;DHT22;3443;48.812;9.112;2023-03-23T04:55:33;13.60;99.90
6810;DHT22;3443;48.812;9.112;2023-03-23T04:58:03;13.60;99.90
6810;DHT22;3443;48.812;9.112;2023-03-23T05:00:29;13.70;99.90
6810;DHT22;3443;48.812;9.112;2023-03-23T05:02:55;13.60;99.90
6810;DHT22;3443;48.812;9.112;2023-03-23T05:05:21;13.60;99.90
6810;DHT22;3443;48.812;9.112;2023-03-23T05:07:48;13.70;99.90
6810;DHT22;3443;48.812;9.112;2023-03-23T05:10:15;13.70;99.90
6810;DHT22;3443;48.812;9.112;2023-03-23T05:12:41;13.80;99.90
6810;DHT22;3443;48.812;9.112;2023-03-23T05:15:08;13.80;99.90
6810;DHT22;3443;48.812;9.112;2023-03-23T05:17:34;13.80;99.90
6810;DHT22;3443;48.812;9.112;2023-03-23T05:20:01;13.90;99.90
6810;DHT22;3443;48.812;9.112;2023-03-23T05:22:29;13.90;99.90
6810;DHT22;3443;48.812;9.112;2023-03-23T05:24:58;13.90;99.90
6810;DHT22;3443;48.812;9.112;2023-03-23T05:27:24;13.90;99.90
6810;DHT22;3443;48.812;9.112;2023-03-23T05:29:56;13.90;99.90
6810;DHT22;3443;48.812;9.112;2023-03-23T05:32:26;13.90;99.90
6810;DHT22;3443;48.812;9.112;2023-03-23T05:35:01;13.90;99.90
6810;DHT22;3443;48.812;9.112;2023-03-23T05:37:28;13.90;99.90
6810;DHT22;3443;48.812;9.112;2023-03-23T05:39:58;13.90;99.90
6810;DHT22;3443;48.812;9.112;2023-03-23T05:42:27;13.90;99.90
6810;DHT22;3443;48.812;9.112;2023-03-23T05:44:52;13.90;99.90
6810;DHT22;3443;48.812;9.112;2023-03-23T05:47:18;13.90;99.90
6810;DHT22;3443;48.812;9.112;2023-03-23T05:49:44;13.90;99.90
6810;DHT22;3443;48.812;9.112;2023-03-23T05:52:10;13.90;99.90
6810;DHT22;3443;48.812;9.112;2023-03-23T05:54:35;13.90;99.90
6810;DHT22;3443;48.812;9.112;2023-03-23T05:57:02;13.90;99.90
6810;DHT22;3443;48.812;9.112;2023-03-23T05:59:28;13.90;99.90
6810;DHT22;3443;48.812;9.112;2023-03-23T06:01:53;13.90;99.90
6810;DHT22;3443;48.812;9.112;2023-03-23T06:04:19;13.90;99.90
6810;DHT22;3443;48.812;9.112;2023-03-23T06:06:46;13.90;99.90
6810;DHT22;3443;48.812;9.112;2023-03-23T06:09:11;13.80;99.90
6810;DHT22;3443;48.812;9.112;2023-03-23T06:11:37;13.90;99.90
6810;DHT22;3443;48.812;9.112;2023-03-23T06:14:03;13.90;99.90
6810;DHT22;3443;48.812;9.112;2023-03-23T06:16:29;13.90;99.90
6810;DHT22;3443;48.812;9.112;2023-03-23T06:18:54;13.90;99.90
6810;DHT22;3443;48.812;9.112;2023-03-23T06:21:22;13.90;99.90
6810;DHT22;3443;48.812;9.112;2023-03-23T06:23:47;13.90;99.90
6810;DHT22;3443;48.812;9.112;2023-03-23T06:26:14;14.00;99.90
6810;DHT22;3443;48.812;9.112;2023-03-23T06:28:41;13.90;99.90
6810;DHT22;3443;48.812;9.112;2023-03-23T06:31:07;13.90;99.90
6810;DHT22;3443;48.812;9.112;2023-03-23T06:33:34;13.90;99.90
6810;DHT22;3443;48.812;9.112;2023-03-23T06:36:01;13.90;99.90
6810;DHT22;3443;48.812;9.112;2023-03-23T06:38:27;13.80;99.90
6810;DHT22;3443;48.812;9.112;2023-03-23T06:40:53;13.80;99.90
6810;DHT22;3443;48.812;9.112;2023-03-23T06:43:20;13.80;99.90
6810;DHT22;3443;48.812;9.112;2023-03-23T06:45:45;13.90;99.90
6810;DHT22;3443;48.812;9.112;2023-03-23T06:48:12;13.90;99.90
6810;DHT22;3443;48.812;9.112;2023-03-23T06:50:37;13.90;99.90
6810;DHT22;3443;48.812;9.112;2023-03-23T06:53:03;14.00;99.90
6810;DHT22;3443;48.812;9.112;2023-03-23T06:55:29;14.10;99.90
6810;DHT22;3443;48.812;9.112;2023-03-23T06:57:54;14.20;99.90
6810;DHT22;3443;48.812;9.112;2023-03-23T07:00:20;14.40;99.90
6810;DHT22;3443;48.812;9.112;2023-03-23T07:02:46;14.40;99.90
6810;DHT22;3443;48.812;9.112;2023-03-23T07:05:12;14.50;99.90
6810;DHT22;3443;48.812;9.112;2023-03-23T07:07:39;14.50;99.90
6810;DHT22;3443;48.812;9.112;2023-03-23T07:10:07;14.40;99.90
6810;DHT22;3443;48.812;9.112;2023-03-23T07:12:34;14.40;99.90
6810;DHT22;3443;48.812;9.112;2023-03-23T07:15:03;14.40;99.90
6810;DHT22;3443;48.812;9.112;2023-03-23T07:17:29;14.30;99.90
6810;DHT22;3443;48.812;9.112;2023-03-23T07:19:55;14.30;99.90
6810;DHT22;3443;48.812;9.112;2023-03-23T07:22:20;14.20;99.90
6810;DHT22;3443;48.812;9.112;2023-03-23T07:24:46;14.20;99.90
6810;DHT22;3443;48.812;9.112;2023-03-23T07:27:12;14.20;99.90
6810;DHT22;3443;48.812;9.112;2023-03-23T07:29:37;14.20;99.90
6810;DHT22;3443;48.812;9.112;2023-03-23T07:32:04;14.10;99.90
6810;DHT22;3443;48.812;9.112;2023-03-23T07:34:31;14.10;99.90
6810;DHT22;3443;48.812;9.112;2023-03-23T07:36:57;14.20;99.90
6810;DHT22;3443;48.812;9.112;2023-03-23T07:39:22;14.20;99.90
6810;DHT22;3443;48.812;9.112;2023-03-23T07:41:49;14.20;99.90
6810;DHT22;3443;48.812;9.112;2023-03-23T07:44:15;14.30;99.90
6810;DHT22;3443;48.812;9.112;2023-03-23T07:46:40;14.30;99.90
6810;DHT22;3443;48.812;9.112;2023-03-23T07:49:07;14.40;99.90
6810;DHT22;3443;48.812;9.112;2023-03-23T07:51:33;14.50;99.90
6810;DHT22;3443;48.812;9.112;2023-03-23T07:53:59;14.70;99.90
6810;DHT22;3443;48.812;9.112;2023-03-23T07:56:28;14.90;99.90
6810;DHT22;3443;48.812;9.112;2023-03-23T07:58:54;15.00;99.90
6810;DHT22;3443;48.812;9.112;2023-03-23T08:01:19;15.10;99.90
6810;DHT22;3443;48.812;9.112;2023-03-23T08:03:45;15.10;99.90
6810;DHT22;3443;48.812;9.112;2023-03-23T08:06:10;15.10;99.90
6810;DHT22;3443;48.812;9.112;2023-03-23T08:08:36;15.10;99.90
6810;DHT22;3443;48.812;9.112;2023-03-23T08:11:03;15.10;99.90
6810;DHT22;3443;48.812;9.112;2023-03-23T08:13:28;15.10;99.90
6810;DHT22;3443;48.812;9.112;2023-03-23T08:15:54;15.10;99.90
6810;DHT22;3443;48.812;9.112;2023-03-23T08:18:20;15.10;99.90
6810;DHT22;3443;48.812;9.112;2023-03-23T08:20:46;15.10;99.90
6810;DHT22;3443;48.812;9.112;2023-03-23T08:23:11;15.20;99.90
6810;DHT22;3443;48.812;9.112;2023-03-23T08:25:38;15.30;99.90
6810;DHT22;3443;48.812;9.112;2023-03-23T08:28:04;15.30;99.90
6810;DHT22;3443;48.812;9.112;2023-03-23T08:30:30;15.40;99.90
6810;DHT22;3443;48.812;9.112;2023-03-23T08:32:58;15.40;99.90
6810;DHT22;3443;48.812;9.112;2023-03-23T08:35:25;15.50;99.90
6810;DHT22;3443;48.812;9.112;2023-03-23T08:37:51;15.50;99.90
6810;DHT22;3443;48.812;9.112;2023-03-23T08:40:19;15.50;99.90
6810;DHT22;3443;48.812;9.112;2023-03-23T08:42:46;15.40;99.90
6810;DHT22;3443;48.812;9.112;2023-03-23T08:45:16;15.30;99.90
6810;DHT22;3443;48.812;9.112;2023-03-23T08:47:43;15.30;99.90
6810;DHT22;3443;48.812;9.112;2023-03-23T08:50:15;15.20;99.90
6810;DHT22;3443;48.812;9.112;2023-03-23T08:52:41;15.20;99.90
6810;DHT22;3443;48.812;9.112;2023-03-23T08:55:07;15.20;99.90
6810;DHT22;3443;48.812;9.112;2023-03-23T08:57:34;15.10;99.90
6810;DHT22;3443;48.812;9.112;2023-03-23T09:00:02;15.10;99.90
6810;DHT22;3443;48.812;9.112;2023-03-23T09:02:40;15.00;99.90
6810;DHT22;3443;48.812;9.112;2023-03-23T09:05:06;14.90;99.90
6810;DHT22;3443;48.812;9.112;2023-03-23T09:07:32;14.90;99.90
6810;DHT22;3443;48.812;9.112;2023-03-23T09:09:57;14.80;99.90
6810;DHT22;3443;48.812;9.112;2023-03-23T09:12:23;14.80;99.90
6810;DHT22;3443;48.812;9.112;2023-03-23T09:14:49;14.80;99.90
6810;DHT22;3443;48.812;9.112;2023-03-23T09:17:14;14.90;99.90
6810;DHT22;3443;48.812;9.112;2023-03-23T09:19:40;14.90;99.90
6810;DHT22;3443;48.812;9.112;2023-03-23T09:22:06;14.80;99.90
6810;DHT22;3443;48.812;9.112;2023-03-23T09:24:33;14.80;99.90
6810;DHT22;3443;48.812;9.112;2023-03-23T09:26:59;14.80;99.90
6810;DHT22;3443;48.812;9.112;2023-03-23T09:29:25;14.80;99.90
6810;DHT22;3443;48.812;9.112;2023-03-23T09:31:52;14.80;99.90
6810;DHT22;3443;48.812;9.112;2023-03-23T09:34:18;14.90;99.90
6810;DHT22;3443;48.812;9.112;2023-03-23T09:36:44;15.00;99.90
6810;DHT22;3443;48.812;9.112;2023-03-23T09:39:10;15.10;99.90
6810;DHT22;3443;48.812;9.112;2023-03-23T09:44:33;15.20;99.90
6810;DHT22;3443;48.812;9.112;2023-03-23T09:47:30;15.20;99.90
6810;DHT22;3443;48.812;9.112;2023-03-23T09:50:14;15.30;99.90
6810;DHT22;3443;48.812;9.112;2023-03-23T09:52:56;15.20;99.90
6810;DHT22;3443;48.812;9.112;2023-03-23T09:55:24;15.40;99.90
6810;DHT22;3443;48.812;9.112;2023-03-23T09:57:59;15.50;99.90
6810;DHT22;3443;48.812;9.112;2023-03-23T10:00:37;15.60;99.90
6810;DHT22;3443;48.812;9.112;2023-03-23T10:03:26;15.60;99.90
6810;DHT22;3443;48.812;9.112;2023-03-23T10:05:54;15.60;99.90
6810;DHT22;3443;48.812;9.112;2023-03-23T10:08:26;15.60;99.90
6810;DHT22;3443;48.812;9.112;2023-03-23T10:11:08;15.70;99.90
6810;DHT22;3443;48.812;9.112;2023-03-23T10:14:06;15.80;99.90
6810;DHT22;3443;48.812;9.112;2023-03-23T10:16:38;15.90;99.90
6810;DHT22;3443;48.812;9.112;2023-03-23T10:19:15;16.00;99.90
6810;DHT22;3443;48.812;9.112;2023-03-23T10:21:46;16.10;99.90
6810;DHT22;3443;48.812;9.112;2023-03-23T10:24:16;16.20;99.90
6810;DHT22;3443;48.812;9.112;2023-03-23T10:29:33;16.20;99.90
6810;DHT22;3443;48.812;9.112;2023-03-23T10:32:02;16.10;99.90
6810;DHT22;3443;48.812;9.112;2023-03-23T10:34:32;15.90;99.90
6810;DHT22;3443;48.812;9.112;2023-03-23T10:37:05;15.90;99.90
6810;DHT22;3443;48.812;9.112;2023-03-23T10:39:44;16.00;99.90
6810;DHT22;3443;48.812;9.112;2023-03-23T10:42:12;16.00;99.90
6810;DHT22;3443;48.812;9.112;2023-03-23T10:44:37;16.10;99.90
6810;DHT22;3443;48.812;9.112;2023-03-23T10:47:08;16.20;99.90
6810;DHT22;3443;48.812;9.112;2023-03-23T10:49:43;16.20;99.90
6810;DHT22;3443;48.812;9.112;2023-03-23T10:52:30;16.30;99.90
6810;DHT22;3443;48.812;9.112;2023-03-23T10:57:44;16.50;99.90
6810;DHT22;3443;48.812;9.112;2023-03-23T11:00:21;16.70;99.90
6810;DHT22;3443;48.812;9.112;2023-03-23T11:03:01;16.80;99.90
6810;DHT22;3443;48.812;9.112;2023-03-23T11:05:57;17.00;99.90
6810;DHT22;3443;48.812;9.112;2023-03-23T11:08:29;17.00;99.90
6810;DHT22;3443;48.812;9.112;2023-03-23T11:11:10;16.90;99.90
6810;DHT22;3443;48.812;9.112;2023-03-23T11:13:40;16.80;99.90
6810;DHT22;3443;48.812;9.112;2023-03-23T11:16:08;16.70;99.90
6810;DHT22;3443;48.812;9.112;2023-03-23T11:18:42;16.70;99.90
6810;DHT22;3443;48.812;9.112;2023-03-23T11:21:09;16.80;99.90
6810;DHT22;3443;48.812;9.112;2023-03-23T11:23:39;16.60;99.90
6810;DHT22;3443;48.812;9.112;2023-03-23T11:26:29;16.60;99.90
6810;DHT22;3443;48.812;9.112;2023-03-23T11:29:05;16.60;99.90
6810;DHT22;3443;48.812;9.112;2023-03-23T11:31:43;16.40;99.90
6810;DHT22;3443;48.812;9.112;2023-03-23T11:34:18;16.50;99.90
6810;DHT22;3443;48.812;9.112;2023-03-23T11:36:50;16.60;99.90
6810;DHT22;3443;48.812;9.112;2023-03-23T11:39:34;16.80;99.90
6810;DHT22;3443;48.812;9.112;2023-03-23T11:42:02;16.90;99.90
6810;DHT22;3443;48.812;9.112;2023-03-23T11:44:42;17.00;99.90
6810;DHT22;3443;48.812;9.112;2023-03-23T11:47:30;17.00;99.90
6810;DHT22;3443;48.812;9.112;2023-03-23T11:50:20;17.10;99.90
6810;DHT22;3443;48.812;9.112;2023-03-23T11:53:18;17.10;99.90
6810;DHT22;3443;48.812;9.112;2023-03-23T11:58:13;17.10;99.90
6810;DHT22;3443;48.812;9.112;2023-03-23T12:00:55;17.00;99.90
6810;DHT22;3443;48.812;9.112;2023-03-23T12:03:26;17.00;99.90
6810;DHT22;3443;48.812;9.112;2023-03-23T12:06:09;16.90;99.90
6810;DHT22;3443;48.812;9.112;2023-03-23T12:11:56;17.00;99.90
6810;DHT22;3443;48.812;9.112;2023-03-23T12:23:11;17.40;99.90
6810;DHT22;3443;48.812;9.112;2023-03-23T12:31:39;17.40;99.90
6810;DHT22;3443;48.812;9.112;2023-03-23T12:44:31;17.60;99.90
6810;DHT22;3443;48.812;9.112;2023-03-23T12:50:03;17.80;99.90
6810;DHT22;3443;48.812;9.112;2023-03-23T12:55:27;17.60;99.90
6810;DHT22;3443;48.812;9.112;2023-03-23T12:58:04;17.70;99.90
6810;DHT22;3443;48.812;9.112;2023-03-23T13:03:21;17.60;99.90
6810;DHT22;3443;48.812;9.112;2023-03-23T13:06:03;17.50;99.90
6810;DHT22;3443;48.812;9.112;2023-03-23T13:08:44;17.40;99.90
6810;DHT22;3443;48.812;9.112;2023-03-23T13:11:31;17.50;99.90
6810;DHT22;3443;48.812;9.112;2023-03-23T13:14:29;17.60;99.90
6810;DHT22;3443;48.812;9.112;2023-03-23T13:23:02;18.00;99.90
6810;DHT22;3443;48.812;9.112;2023-03-23T13:25:15;17.90;99.90
6810;DHT22;3443;48.812;9.112;2023-03-23T13:27:42;18.00;99.90
6810;DHT22;3443;48.812;9.112;2023-03-23T13:30:22;18.10;99.90
6810;DHT22;3443;48.812;9.112;2023-03-23T13:32:51;18.10;99.90
6810;DHT22;3443;48.812;9.112;2023-03-23T13:35:19;18.10;99.90
6810;DHT22;3443;48.812;9.112;2023-03-23T13:37:50;18.20;99.90
6810;DHT22;3443;48.812;9.112;2023-03-23T13:40:28;18.40;99.90
6810;DHT22;3443;48.812;9.112;2023-03-23T13:42:56;18.30;99.90
6810;DHT22;3443;48.812;9.112;2023-03-23T13:45:46;18.30;99.90
6810;DHT22;3443;48.812;9.112;2023-03-23T13:53:31;18.20;99.90
6810;DHT22;3443;48.812;9.112;2023-03-23T13:58:49;18.00;99.90
6810;DHT22;3443;48.812;9.112;2023-03-23T14:01:30;17.90;99.90
6810;DHT22;3443;48.812;9.112;2023-03-23T14:03:59;17.80;99.90
6810;DHT22;3443;48.812;9.112;2023-03-23T14:06:33;17.70;99.90
6810;DHT22;3443;48.812;9.112;2023-03-23T14:09:46;17.70;99.90
6810;DHT22;3443;48.812;9.112;2023-03-23T14:11:58;17.70;99.90
6810;DHT22;3443;48.812;9.112;2023-03-23T14:14:31;17.60;99.90
6810;DHT22;3443;48.812;9.112;2023-03-23T14:17:26;17.70;99.90
6810;DHT22;3443;48.812;9.112;2023-03-23T14:19:55;17.70;99.90
6810;DHT22;3443;48.812;9.112;2023-03-23T14:22:32;17.70;99.90
6810;DHT22;3443;48.812;9.112;2023-03-23T14:25:15;17.70;99.90
6810;DHT22;3443;48.812;9.112;2023-03-23T14:27:42;17.70;99.90
6810;DHT22;3443;48.812;9.112;2023-03-23T14:30:14;17.70;99.90
6810;DHT22;3443;48.812;9.112;2023-03-23T14:32:40;17.60;99.90
6810;DHT22;3443;48.812;9.112;2023-03-23T14:35:42;17.70;99.90
6810;DHT22;3443;48.812;9.112;2023-03-23T14:38:00;17.80;99.90
6810;DHT22;3443;48.812;9.112;2023-03-23T14:40:27;17.80;99.90
6810;DHT22;3443;48.812;9.112;2023-03-23T14:42:54;17.80;99.90
6810;DHT22;3443;48.812;9.112;2023-03-23T14:45:21;17.80;99.90
6810;DHT22;3443;48.812;9.112;2023-03-23T14:47:59;17.70;99.90
6810;DHT22;3443;48.812;9.112;2023-03-23T14:50:39;17.70;99.90
6810;DHT22;3443;48.812;9.112;2023-03-23T14:53:19;17.70;99.90
6810;DHT22;3443;48.812;9.112;2023-03-23T14:55:48;17.60;99.90
6810;DHT22;3443;48.812;9.112;2023-03-23T14:58:16;17.60;99.90
6810;DHT22;3443;48.812;9.112;2023-03-23T15:00:46;17.60;99.90
6810;DHT22;3443;48.812;9.112;2023-03-23T15:03:16;17.50;99.90
6810;DHT22;3443;48.812;9.112;2023-03-23T15:05:55;17.40;99.90
6810;DHT22;3443;48.812;9.112;2023-03-23T15:08:27;17.50;99.90
6810;DHT22;3443;48.812;9.112;2023-03-23T15:13:46;17.50;99.90
6810;DHT22;3443;48.812;9.112;2023-03-23T15:16:20;17.60;99.90
6810;DHT22;3443;48.812;9.112;2023-03-23T15:19:00;17.40;99.90
6810;DHT22;3443;48.812;9.112;2023-03-23T15:21:32;17.40;99.90
6810;DHT22;3443;48.812;9.112;2023-03-23T15:24:00;17.40;99.90
6810;DHT22;3443;48.812;9.112;2023-03-23T15:26:42;17.30;99.90
6810;DHT22;3443;48.812;9.112;2023-03-23T15:29:11;17.30;99.90
6810;DHT22;3443;48.812;9.112;2023-03-23T15:31:51;17.20;99.90
6810;DHT22;3443;48.812;9.112;2023-03-23T15:34:31;17.20;99.90
6810;DHT22;3443;48.812;9.112;2023-03-23T15:37:03;17.20;99.90
6810;DHT22;3443;48.812;9.112;2023-03-23T15:39:31;17.20;99.90
6810;DHT22;3443;48.812;9.112;2023-03-23T15:41:58;17.20;99.90
6810;DHT22;3443;48.812;9.112;2023-03-23T15:44:34;17.10;99.90
6810;DHT22;3443;48.812;9.112;2023-03-23T15:47:18;17.10;99.90
6810;DHT22;3443;48.812;9.112;2023-03-23T15:49:57;17.10;99.90
6810;DHT22;3443;48.812;9.112;2023-03-23T15:52:25;17.10;99.90
6810;DHT22;3443;48.812;9.112;2023-03-23T15:54:50;17.10;99.90
6810;DHT22;3443;48.812;9.112;2023-03-23T15:57:16;17.10;99.90
6810;DHT22;3443;48.812;9.112;2023-03-23T15:59:41;17.00;99.90
6810;DHT22;3443;48.812;9.112;2023-03-23T16:02:16;17.00;99.90
6810;DHT22;3443;48.812;9.112;2023-03-23T16:04:42;17.00;99.90
6810;DHT22;3443;48.812;9.112;2023-03-23T16:07:08;17.00;99.90
6810;DHT22;3443;48.812;9.112;2023-03-23T16:09:38;16.90;99.90
6810;DHT22;3443;48.812;9.112;2023-03-23T16:12:05;16.80;99.90
6810;DHT22;3443;48.812;9.112;2023-03-23T16:14:30;16.90;99.90
6810;DHT22;3443;48.812;9.112;2023-03-23T16:16:56;16.90;99.90
6810;DHT22;3443;48.812;9.112;2023-03-23T16:19:24;16.80;99.90
6810;DHT22;3443;48.812;9.112;2023-03-23T16:21:50;16.70;99.90
6810;DHT22;3443;48.812;9.112;2023-03-23T16:24:16;16.70;99.90
6810;DHT22;3443;48.812;9.112;2023-03-23T16:26:44;16.70;99.90
6810;DHT22;3443;48.812;9.112;2023-03-23T16:29:13;16.60;99.90
6810;DHT22;3443;48.812;9.112;2023-03-23T16:31:39;16.60;99.90
6810;DHT22;3443;48.812;9.112;2023-03-23T16:34:05;16.60;99.90
6810;DHT22;3443;48.812;9.112;2023-03-23T16:36:31;16.60;99.90
6810;DHT22;3443;48.812;9.112;2023-03-23T16:38:57;16.50;99.90
6810;DHT22;3443;48.812;9.112;2023-03-23T16:41:22;16.50;99.90
6810;DHT22;3443;48.812;9.112;2023-03-23T16:43:48;16.50;99.90
6810;DHT22;3443;48.812;9.112;2023-03-23T16:46:13;16.40;99.90
6810;DHT22;3443;48.812;9.112;2023-03-23T16:48:39;16.40;99.90
6810;DHT22;3443;48.812;9.112;2023-03-23T16:51:05;16.40;99.90
6810;DHT22;3443;48.812;9.112;2023-03-23T16:53:31;16.30;99.90
6810;DHT22;3443;48.812;9.112;2023-03-23T16:55:57;16.30;99.90
6810;DHT22;3443;48.812;9.112;2023-03-23T16:58:23;16.30;99.90
6810;DHT22;3443;48.812;9.112;2023-03-23T17:00:50;16.30;99.90
6810;DHT22;3443;48.812;9.112;2023-03-23T17:03:18;16.20;99.90
6810;DHT22;3443;48.812;9.112;2023-03-23T17:05:46;16.20;99.90
6810;DHT22;3443;48.812;9.112;2023-03-23T17:08:11;16.20;99.90
6810;DHT22;3443;48.812;9.112;2023-03-23T17:10:38;16.20;99.90
6810;DHT22;3443;48.812;9.112;2023-03-23T17:13:04;16.10;99.90
6810;DHT22;3443;48.812;9.112;2023-03-23T17:15:30;16.10;99.90
6810;DHT22;3443;48.812;9.112;2023-03-23T17:17:55;16.10;99.90
6810;DHT22;3443;48.812;9.112;2023-03-23T17:20:21;16.00;99.90
6810;DHT22;3443;48.812;9.112;2023-03-23T17:22:47;16.00;99.90
6810;DHT22;3443;48.812;9.112;2023-03-23T17:25:13;16.00;99.90
6810;DHT22;3443;48.812;9.112;2023-03-23T17:27:40;16.00;99.90
6810;DHT22;3443;48.812;9.112;2023-03-23T17:30:08;16.00;99.90
6810;DHT22;3443;48.812;9.112;2023-03-23T17:32:34;16.00;99.90
6810;DHT22;3443;48.812;9.112;2023-03-23T17:35:01;16.00;99.90
6810;DHT22;3443;48.812;9.112;2023-03-23T17:37:26;15.90;99.90
6810;DHT22;3443;48.812;9.112;2023-03-23T17:39:52;15.90;99.90